sensor_id;sensor_type;location;lat;lon;timestamp;pressure;altitude;pressure_sealevel;temperature;humidity
34034;BME280;63481;52.588;22.472;2024-03-17T00:04:48;99952.20;;;8.80;100.00
34034;BME280;63481;52.588;22.472;2024-03-17T00:09:50;99956.31;;;8.69;100.00
34034;BME280;63481;52.588;22.472;2024-03-17T00:14:51;99964.46;;;8.62;100.00
34034;BME280;63481;52.588;22.472;2024-03-17T00:19:53;99976.75;;;8.31;100.00
34034;BME280;63481;52.588;22.472;2024-03-17T00:24:54;99979.98;;;8.03;100.00
34034;BME280;63481;52.588;22.472;2024-03-17T00:29:56;100000.04;;;7.82;100.00
34034;BME280;63481;52.588;22.472;2024-03-17T00:34:57;100017.98;;;7.66;100.00
34034;BME280;63481;52.588;22.472;2024-03-17T00:40:02;100045.39;;;7.10;100.00
34034;BME280;63481;52.588;22.472;2024-03-17T00:45:03;100064.23;;;6.32;100.00
34034;BME280;63481;52.588;22.472;2024-03-17T00:50:07;100083.39;;;5.52;100.00
34034;BME280;63481;52.588;22.472;2024-03-17T00:55:09;100087.69;;;5.05;100.00
34034;BME280;63481;52.588;22.472;2024-03-17T01:00:13;100109.45;;;4.66;100.00
34034;BME280;63481;52.588;22.472;2024-03-17T01:05:16;100126.63;;;4.49;100.00
34034;BME280;63481;52.588;22.472;2024-03-17T01:10:18;100119.91;;;4.43;100.00
34034;BME280;63481;52.588;22.472;2024-03-17T01:15:20;100122.33;;;4.43;100.00
34034;BME280;63481;52.588;22.472;2024-03-17T01:20:22;100122.43;;;4.47;100.00
34034;BME280;63481;52.588;22.472;2024-03-17T01:25:23;100125.55;;;4.52;100.00
34034;BME280;63481;52.588;22.472;2024-03-17T01:30:26;100126.64;;;4.55;100.00
34034;BME280;63481;52.588;22.472;2024-03-17T01:35:28;100132.87;;;4.63;100.00
34034;BME280;63481;52.588;22.472;2024-03-17T01:40:29;100130.53;;;4.72;100.00
34034;BME280;63481;52.588;22.472;2024-03-17T01:45:32;100133.58;;;4.68;100.00
34034;BME280;63481;52.588;22.472;2024-03-17T01:50:36;100131.44;;;4.67;100.00
34034;BME280;63481;52.588;22.472;2024-03-17T01:55:39;100132.92;;;4.60;100.00
34034;BME280;63481;52.588;22.472;2024-03-17T02:00:41;100130.61;;;4.60;100.00
34034;BME280;63481;52.588;22.472;2024-03-17T02:05:42;100126.84;;;4.59;100.00
34034;BME280;63481;52.588;22.472;2024-03-17T02:10:44;100145.45;;;4.70;100.00
34034;BME280;63481;52.588;22.472;2024-03-17T02:15:46;100135.70;;;4.73;100.00
34034;BME280;63481;52.588;22.472;2024-03-17T02:20:48;100131.11;;;4.68;100.00
34034;BME280;63481;52.588;22.472;2024-03-17T02:26:02;100131.59;;;4.64;100.00
34034;BME280;63481;52.588;22.472;2024-03-17T02:31:06;100134.95;;;4.56;100.00
34034;BME280;63481;52.588;22.472;2024-03-17T02:36:08;100141.12;;;4.47;100.00
34034;BME280;63481;52.588;22.472;2024-03-17T02:41:10;100145.08;;;4.38;100.00
34034;BME280;63481;52.588;22.472;2024-03-17T02:46:12;100148.23;;;4.32;100.00
34034;BME280;63481;52.588;22.472;2024-03-17T02:51:14;100146.80;;;4.31;100.00
34034;BME280;63481;52.588;22.472;2024-03-17T02:56:16;100149.19;;;4.25;100.00
34034;BME280;63481;52.588;22.472;2024-03-17T03:01:19;100144.69;;;4.16;100.00
34034;BME280;63481;52.588;22.472;2024-03-17T03:06:20;100148.23;;;4.11;100.00
34034;BME280;63481;52.588;22.472;2024-03-17T03:11:22;100144.11;;;4.09;100.00
34034;BME280;63481;52.588;22.472;2024-03-17T03:16:23;100150.38;;;4.05;100.00
34034;BME280;63481;52.588;22.472;2024-03-17T03:21:25;100152.98;;;3.94;100.00
34034;BME280;63481;52.588;22.472;2024-03-17T03:26:26;100153.66;;;3.83;100.00
34034;BME280;63481;52.588;22.472;2024-03-17T03:33:03;100162.81;;;3.74;100.00
34034;BME280;63481;52.588;22.472;2024-03-17T03:38:06;100167.10;;;3.59;100.00
34034;BME280;63481;52.588;22.472;2024-03-17T03:43:10;100165.30;;;3.53;100.00
34034;BME280;63481;52.588;22.472;2024-03-17T03:48:12;100168.77;;;3.48;100.00
34034;BME280;63481;52.588;22.472;2024-03-17T03:53:14;100173.95;;;3.43;100.00
34034;BME280;63481;52.588;22.472;2024-03-17T03:58:15;100168.18;;;3.38;100.00
34034;BME280;63481;52.588;22.472;2024-03-17T04:03:17;100170.05;;;3.32;100.00
34034;BME280;63481;52.588;22.472;2024-03-17T04:08:19;100177.46;;;3.20;100.00
34034;BME280;63481;52.588;22.472;2024-03-17T04:13:20;100186.02;;;3.12;100.00
34034;BME280;63481;52.588;22.472;2024-03-17T04:18:24;100197.11;;;3.03;100.00
34034;BME280;63481;52.588;22.472;2024-03-17T04:23:26;100199.90;;;2.87;100.00
34034;BME280;63481;52.588;22.472;2024-03-17T04:28:28;100201.79;;;2.79;100.00
34034;BME280;63481;52.588;22.472;2024-03-17T04:33:31;100207.23;;;2.64;100.00
34034;BME280;63481;52.588;22.472;2024-03-17T04:38:33;100203.27;;;2.56;100.00
34034;BME280;63481;52.588;22.472;2024-03-17T04:43:35;100199.56;;;2.46;100.00
34034;BME280;63481;52.588;22.472;2024-03-17T04:48:36;100199.35;;;2.34;100.00
34034;BME280;63481;52.588;22.472;2024-03-17T04:53:38;100203.05;;;2.26;100.00
34034;BME280;63481;52.588;22.472;2024-03-17T04:58:40;100202.89;;;2.17;100.00
34034;BME280;63481;52.588;22.472;2024-03-17T05:03:41;100209.23;;;2.08;100.00
34034;BME280;63481;52.588;22.472;2024-03-17T05:08:43;100212.48;;;2.02;100.00
34034;BME280;63481;52.588;22.472;2024-03-17T05:13:45;100215.42;;;1.93;100.00
34034;BME280;63481;52.588;22.472;2024-03-17T05:18:48;100217.34;;;1.97;100.00
34034;BME280;63481;52.588;22.472;2024-03-17T05:39:27;100226.15;;;2.37;100.00
34034;BME280;63481;52.588;22.472;2024-03-17T05:44:29;100225.84;;;2.55;100.00
34034;BME280;63481;52.588;22.472;2024-03-17T05:49:35;100226.78;;;2.68;100.00
34034;BME280;63481;52.588;22.472;2024-03-17T05:54:37;100230.67;;;2.75;100.00
34034;BME280;63481;52.588;22.472;2024-03-17T05:59:38;100233.61;;;2.73;100.00
34034;BME280;63481;52.588;22.472;2024-03-17T06:04:40;100236.51;;;2.79;100.00
34034;BME280;63481;52.588;22.472;2024-03-17T06:09:43;100235.27;;;2.93;100.00
34034;BME280;63481;52.588;22.472;2024-03-17T06:14:48;100234.80;;;3.01;100.00
34034;BME280;63481;52.588;22.472;2024-03-17T06:19:51;100225.38;;;3.14;100.00
34034;BME280;63481;52.588;22.472;2024-03-17T06:24:53;100215.93;;;3.28;100.00
34034;BME280;63481;52.588;22.472;2024-03-17T06:29:55;100213.29;;;3.48;100.00
34034;BME280;63481;52.588;22.472;2024-03-17T06:34:57;100212.61;;;3.61;100.00
34034;BME280;63481;52.588;22.472;2024-03-17T06:39:59;100207.33;;;3.71;100.00
34034;BME280;63481;52.588;22.472;2024-03-17T06:45:01;100205.66;;;3.91;100.00
34034;BME280;63481;52.588;22.472;2024-03-17T06:50:04;100205.29;;;4.07;100.00
34034;BME280;63481;52.588;22.472;2024-03-17T06:55:07;100200.89;;;4.18;100.00
34034;BME280;63481;52.588;22.472;2024-03-17T07:00:09;100203.99;;;4.16;100.00
34034;BME280;63481;52.588;22.472;2024-03-17T07:05:15;100204.40;;;4.12;100.00
34034;BME280;63481;52.588;22.472;2024-03-17T07:10:17;100203.19;;;4.28;100.00
34034;BME280;63481;52.588;22.472;2024-03-17T07:15:18;100202.98;;;4.43;100.00
34034;BME280;63481;52.588;22.472;2024-03-17T07:20:21;100202.63;;;4.51;100.00
34034;BME280;63481;52.588;22.472;2024-03-17T07:25:23;100212.89;;;4.69;100.00
34034;BME280;63481;52.588;22.472;2024-03-17T07:30:25;100210.02;;;4.76;100.00
34034;BME280;63481;52.588;22.472;2024-03-17T07:35:27;100208.39;;;4.73;100.00
34034;BME280;63481;52.588;22.472;2024-03-17T07:40:28;100208.19;;;4.84;100.00
34034;BME280;63481;52.588;22.472;2024-03-17T07:45:30;100206.21;;;4.85;100.00
34034;BME280;63481;52.588;22.472;2024-03-17T07:50:33;100203.61;;;4.88;100.00
34034;BME280;63481;52.588;22.472;2024-03-17T07:55:36;100203.42;;;5.00;100.00
34034;BME280;63481;52.588;22.472;2024-03-17T08:00:38;100202.81;;;5.09;100.00
34034;BME280;63481;52.588;22.472;2024-03-17T08:05:40;100205.46;;;5.13;100.00
34034;BME280;63481;52.588;22.472;2024-03-17T08:10:43;100207.14;;;5.08;100.00
34034;BME280;63481;52.588;22.472;2024-03-17T08:15:45;100215.06;;;5.29;100.00
34034;BME280;63481;52.588;22.472;2024-03-17T08:20:47;100214.63;;;5.30;100.00
34034;BME280;63481;52.588;22.472;2024-03-17T08:25:53;100223.05;;;5.09;100.00
34034;BME280;63481;52.588;22.472;2024-03-17T08:30:59;100219.75;;;5.07;100.00
34034;BME280;63481;52.588;22.472;2024-03-17T08:36:03;100216.66;;;5.26;100.00
34034;BME280;63481;52.588;22.472;2024-03-17T08:41:09;100216.03;;;5.39;100.00
34034;BME280;63481;52.588;22.472;2024-03-17T08:46:11;100223.32;;;5.16;100.00
34034;BME280;63481;52.588;22.472;2024-03-17T08:51:15;100223.87;;;5.13;100.00
34034;BME280;63481;52.588;22.472;2024-03-17T08:56:16;100217.06;;;5.44;100.00
34034;BME280;63481;52.588;22.472;2024-03-17T09:01:18;100217.22;;;5.57;100.00
34034;BME280;63481;52.588;22.472;2024-03-17T09:06:20;100211.56;;;5.40;100.00
34034;BME280;63481;52.588;22.472;2024-03-17T09:11:23;100222.30;;;5.29;100.00
34034;BME280;63481;52.588;22.472;2024-03-17T09:16:29;100240.77;;;4.97;100.00
34034;BME280;63481;52.588;22.472;2024-03-17T09:21:31;100257.23;;;3.86;100.00
34034;BME280;63481;52.588;22.472;2024-03-17T09:26:33;100243.23;;;3.72;100.00
34034;BME280;63481;52.588;22.472;2024-03-17T09:31:41;100234.02;;;3.92;100.00
34034;BME280;63481;52.588;22.472;2024-03-17T09:36:42;100229.38;;;4.31;100.00
34034;BME280;63481;52.588;22.472;2024-03-17T09:41:46;100221.95;;;4.78;100.00
34034;BME280;63481;52.588;22.472;2024-03-17T09:46:48;100223.11;;;4.80;100.00
34034;BME280;63481;52.588;22.472;2024-03-17T09:51:52;100214.39;;;4.87;100.00
34034;BME280;63481;52.588;22.472;2024-03-17T09:56:55;100217.09;;;4.89;100.00
34034;BME280;63481;52.588;22.472;2024-03-17T10:01:57;100218.76;;;4.73;100.00
34034;BME280;63481;52.588;22.472;2024-03-17T10:06:59;100217.42;;;4.60;100.00
34034;BME280;63481;52.588;22.472;2024-03-17T10:12:01;100217.39;;;4.60;100.00
34034;BME280;63481;52.588;22.472;2024-03-17T10:17:02;100224.40;;;4.30;100.00
34034;BME280;63481;52.588;22.472;2024-03-17T10:22:04;100228.89;;;3.83;100.00
34034;BME280;63481;52.588;22.472;2024-03-17T10:27:10;100223.65;;;3.79;100.00
34034;BME280;63481;52.588;22.472;2024-03-17T10:32:14;100226.23;;;3.72;100.00
34034;BME280;63481;52.588;22.472;2024-03-17T10:37:20;100220.11;;;3.71;100.00
34034;BME280;63481;52.588;22.472;2024-03-17T10:42:30;100214.27;;;3.78;100.00
34034;BME280;63481;52.588;22.472;2024-03-17T10:47:37;100215.24;;;3.90;100.00
34034;BME280;63481;52.588;22.472;2024-03-17T10:52:41;100212.58;;;4.07;100.00
34034;BME280;63481;52.588;22.472;2024-03-17T10:57:48;100205.04;;;4.34;100.00
34034;BME280;63481;52.588;22.472;2024-03-17T11:02:53;100204.55;;;4.78;100.00
34034;BME280;63481;52.588;22.472;2024-03-17T11:07:57;100193.52;;;5.07;100.00
34034;BME280;63481;52.588;22.472;2024-03-17T11:13:04;100201.08;;;5.08;100.00
34034;BME280;63481;52.588;22.472;2024-03-17T11:23:26;100197.48;;;4.92;100.00
34034;BME280;63481;52.588;22.472;2024-03-17T11:28:57;100199.77;;;4.94;100.00
34034;BME280;63481;52.588;22.472;2024-03-17T11:34:00;100197.77;;;5.01;100.00
34034;BME280;63481;52.588;22.472;2024-03-17T11:39:06;100199.56;;;5.12;100.00
34034;BME280;63481;52.588;22.472;2024-03-17T11:49:30;100192.11;;;5.72;100.00
34034;BME280;63481;52.588;22.472;2024-03-17T11:54:33;100190.71;;;5.65;100.00
34034;BME280;63481;52.588;22.472;2024-03-17T11:59:36;100184.22;;;5.31;100.00
34034;BME280;63481;52.588;22.472;2024-03-17T12:04:41;100194.06;;;5.03;100.00
34034;BME280;63481;52.588;22.472;2024-03-17T12:09:45;100194.44;;;4.96;100.00
34034;BME280;63481;52.588;22.472;2024-03-17T12:14:50;100213.17;;;4.71;100.00
34034;BME280;63481;52.588;22.472;2024-03-17T12:19:52;100212.71;;;4.23;100.00
34034;BME280;63481;52.588;22.472;2024-03-17T12:24:55;100201.09;;;4.42;100.00
34034;BME280;63481;52.588;22.472;2024-03-17T12:29:57;100204.48;;;4.73;100.00
34034;BME280;63481;52.588;22.472;2024-03-17T12:34:59;100198.02;;;4.89;100.00
34034;BME280;63481;52.588;22.472;2024-03-17T12:40:01;100190.23;;;5.02;100.00
34034;BME280;63481;52.588;22.472;2024-03-17T12:45:09;100183.48;;;5.22;100.00
34034;BME280;63481;52.588;22.472;2024-03-17T12:50:12;100179.27;;;5.28;100.00
34034;BME280;63481;52.588;22.472;2024-03-17T12:55:19;100182.09;;;5.17;100.00
34034;BME280;63481;52.588;22.472;2024-03-17T13:00:39;100186.23;;;4.85;100.00
34034;BME280;63481;52.588;22.472;2024-03-17T13:05:47;100187.05;;;4.76;100.00
34034;BME280;63481;52.588;22.472;2024-03-17T13:10:48;100190.40;;;4.47;100.00
34034;BME280;63481;52.588;22.472;2024-03-17T13:15:50;100196.48;;;4.38;100.00
34034;BME280;63481;52.588;22.472;2024-03-17T13:20:52;100189.46;;;4.33;100.00
34034;BME280;63481;52.588;22.472;2024-03-17T13:25:59;100188.48;;;4.61;100.00
34034;BME280;63481;52.588;22.472;2024-03-17T13:31:02;100187.35;;;4.72;100.00
34034;BME280;63481;52.588;22.472;2024-03-17T13:36:06;100186.35;;;4.53;100.00
34034;BME280;63481;52.588;22.472;2024-03-17T13:41:08;100184.45;;;4.57;100.00
34034;BME280;63481;52.588;22.472;2024-03-17T13:46:10;100190.35;;;4.52;100.00
34034;BME280;63481;52.588;22.472;2024-03-17T13:51:13;100185.88;;;4.41;100.00
34034;BME280;63481;52.588;22.472;2024-03-17T13:56:15;100191.16;;;4.19;100.00
34034;BME280;63481;52.588;22.472;2024-03-17T14:01:17;100193.69;;;4.12;100.00
34034;BME280;63481;52.588;22.472;2024-03-17T14:06:19;100195.08;;;3.99;100.00
34034;BME280;63481;52.588;22.472;2024-03-17T14:11:21;100233.39;;;3.25;100.00
34034;BME280;63481;52.588;22.472;2024-03-17T14:16:22;100249.23;;;1.35;100.00
34034;BME280;63481;52.588;22.472;2024-03-17T14:21:24;100257.09;;;0.79;100.00
34034;BME280;63481;52.588;22.472;2024-03-17T14:26:29;100273.00;;;0.32;100.00
34034;BME280;63481;52.588;22.472;2024-03-17T14:31:32;100271.81;;;0.13;100.00
34034;BME280;63481;52.588;22.472;2024-03-17T14:36:35;100269.76;;;0.16;100.00
34034;BME280;63481;52.588;22.472;2024-03-17T14:41:38;100276.43;;;0.27;100.00
34034;BME280;63481;52.588;22.472;2024-03-17T14:46:40;100272.17;;;0.43;100.00
34034;BME280;63481;52.588;22.472;2024-03-17T14:51:42;100276.52;;;0.68;100.00
34034;BME280;63481;52.588;22.472;2024-03-17T14:56:44;100273.21;;;1.02;100.00
34034;BME280;63481;52.588;22.472;2024-03-17T15:01:46;100278.23;;;1.36;100.00
34034;BME280;63481;52.588;22.472;2024-03-17T15:06:48;100281.77;;;1.53;100.00
34034;BME280;63481;52.588;22.472;2024-03-17T15:11:50;100283.94;;;1.58;100.00
34034;BME280;63481;52.588;22.472;2024-03-17T15:16:52;100288.21;;;1.59;100.00
34034;BME280;63481;52.588;22.472;2024-03-17T15:27:35;100291.73;;;1.63;100.00
34034;BME280;63481;52.588;22.472;2024-03-17T15:32:37;100293.89;;;1.68;100.00
34034;BME280;63481;52.588;22.472;2024-03-17T15:37:42;100298.74;;;1.64;100.00
34034;BME280;63481;52.588;22.472;2024-03-17T15:43:03;100309.55;;;1.52;100.00
34034;BME280;63481;52.588;22.472;2024-03-17T15:48:05;100315.21;;;1.39;100.00
34034;BME280;63481;52.588;22.472;2024-03-17T15:53:07;100308.36;;;1.32;100.00
34034;BME280;63481;52.588;22.472;2024-03-17T15:58:10;100310.73;;;1.30;100.00
34034;BME280;63481;52.588;22.472;2024-03-17T16:03:12;100309.64;;;1.32;100.00
34034;BME280;63481;52.588;22.472;2024-03-17T16:08:15;100305.91;;;1.31;100.00
34034;BME280;63481;52.588;22.472;2024-03-17T16:19:16;100313.40;;;1.38;100.00
34034;BME280;63481;52.588;22.472;2024-03-17T16:24:20;100316.59;;;1.30;100.00
34034;BME280;63481;52.588;22.472;2024-03-17T16:29:21;100326.06;;;1.39;100.00
34034;BME280;63481;52.588;22.472;2024-03-17T16:34:23;100327.73;;;1.40;100.00
34034;BME280;63481;52.588;22.472;2024-03-17T16:39:29;100337.02;;;1.31;100.00
34034;BME280;63481;52.588;22.472;2024-03-17T16:44:54;100341.20;;;1.24;100.00
34034;BME280;63481;52.588;22.472;2024-03-17T16:49:58;100339.13;;;1.22;100.00
34034;BME280;63481;52.588;22.472;2024-03-17T16:55:03;100333.54;;;1.20;100.00
34034;BME280;63481;52.588;22.472;2024-03-17T17:00:06;100337.60;;;1.08;100.00
34034;BME280;63481;52.588;22.472;2024-03-17T17:05:19;100338.25;;;1.01;100.00
34034;BME280;63481;52.588;22.472;2024-03-17T17:10:21;100339.70;;;1.10;100.00
34034;BME280;63481;52.588;22.472;2024-03-17T17:15:23;100347.08;;;1.23;100.00
34034;BME280;63481;52.588;22.472;2024-03-17T17:20:24;100353.45;;;1.16;100.00
34034;BME280;63481;52.588;22.472;2024-03-17T17:25:27;100349.69;;;1.11;100.00
34034;BME280;63481;52.588;22.472;2024-03-17T17:30:29;100353.36;;;1.06;100.00
34034;BME280;63481;52.588;22.472;2024-03-17T17:38:44;100344.47;;;1.06;100.00
34034;BME280;63481;52.588;22.472;2024-03-17T17:43:50;100346.59;;;0.94;100.00
34034;BME280;63481;52.588;22.472;2024-03-17T17:48:52;100353.36;;;0.97;100.00
34034;BME280;63481;52.588;22.472;2024-03-17T17:53:54;100354.45;;;1.13;100.00
34034;BME280;63481;52.588;22.472;2024-03-17T17:58:56;100354.91;;;1.24;100.00
34034;BME280;63481;52.588;22.472;2024-03-17T18:03:58;100352.84;;;1.19;100.00
34034;BME280;63481;52.588;22.472;2024-03-17T18:09:02;100358.93;;;1.12;100.00
34034;BME280;63481;52.588;22.472;2024-03-17T18:14:11;100353.31;;;1.22;100.00
34034;BME280;63481;52.588;22.472;2024-03-17T18:19:13;100354.84;;;1.11;100.00
34034;BME280;63481;52.588;22.472;2024-03-17T18:24:14;100359.33;;;1.13;100.00
34034;BME280;63481;52.588;22.472;2024-03-17T18:29:16;100356.13;;;1.07;100.00
34034;BME280;63481;52.588;22.472;2024-03-17T18:34:18;100361.50;;;1.02;100.00
34034;BME280;63481;52.588;22.472;2024-03-17T18:39:19;100359.45;;;0.94;100.00
34034;BME280;63481;52.588;22.472;2024-03-17T18:44:21;100358.44;;;0.90;100.00
34034;BME280;63481;52.588;22.472;2024-03-17T18:49:23;100350.21;;;0.88;100.00
34034;BME280;63481;52.588;22.472;2024-03-17T18:54:25;100352.66;;;0.81;100.00
34034;BME280;63481;52.588;22.472;2024-03-17T18:59:26;100352.60;;;0.77;100.00
34034;BME280;63481;52.588;22.472;2024-03-17T19:04:28;100350.36;;;0.77;100.00
34034;BME280;63481;52.588;22.472;2024-03-17T19:09:30;100348.86;;;0.69;100.00
34034;BME280;63481;52.588;22.472;2024-03-17T19:14:32;100352.34;;;0.65;100.00
34034;BME280;63481;52.588;22.472;2024-03-17T19:19:33;100349.17;;;0.73;100.00
34034;BME280;63481;52.588;22.472;2024-03-17T19:24:35;100350.34;;;0.68;100.00
34034;BME280;63481;52.588;22.472;2024-03-17T19:29:37;100343.61;;;0.67;100.00
34034;BME280;63481;52.588;22.472;2024-03-17T19:34:39;100344.48;;;0.59;100.00
34034;BME280;63481;52.588;22.472;2024-03-17T19:39:41;100344.24;;;0.60;100.00
34034;BME280;63481;52.588;22.472;2024-03-17T19:44:46;100345.56;;;0.61;100.00
34034;BME280;63481;52.588;22.472;2024-03-17T19:49:51;100344.88;;;0.55;100.00
34034;BME280;63481;52.588;22.472;2024-03-17T19:54:53;100340.88;;;0.55;100.00
34034;BME280;63481;52.588;22.472;2024-03-17T19:59:55;100345.13;;;0.54;100.00
34034;BME280;63481;52.588;22.472;2024-03-17T20:04:56;100344.04;;;0.58;100.00
34034;BME280;63481;52.588;22.472;2024-03-17T20:09:59;100339.48;;;0.47;100.00
34034;BME280;63481;52.588;22.472;2024-03-17T20:15:01;100339.13;;;0.49;100.00
34034;BME280;63481;52.588;22.472;2024-03-17T20:20:03;100342.70;;;0.52;100.00
34034;BME280;63481;52.588;22.472;2024-03-17T20:25:05;100344.44;;;0.41;100.00
34034;BME280;63481;52.588;22.472;2024-03-17T20:30:09;100337.65;;;0.31;100.00
34034;BME280;63481;52.588;22.472;2024-03-17T20:35:10;100335.76;;;0.36;100.00
34034;BME280;63481;52.588;22.472;2024-03-17T20:40:12;100334.90;;;0.30;100.00
34034;BME280;63481;52.588;22.472;2024-03-17T20:45:15;100334.95;;;0.22;100.00
34034;BME280;63481;52.588;22.472;2024-03-17T20:50:20;100329.77;;;0.25;100.00
34034;BME280;63481;52.588;22.472;2024-03-17T20:55:22;100331.56;;;0.27;100.00
34034;BME280;63481;52.588;22.472;2024-03-17T21:00:24;100323.36;;;0.24;100.00
34034;BME280;63481;52.588;22.472;2024-03-17T21:05:28;100324.30;;;0.24;100.00
34034;BME280;63481;52.588;22.472;2024-03-17T21:10:30;100320.69;;;0.21;100.00
34034;BME280;63481;52.588;22.472;2024-03-17T21:15:32;100321.60;;;0.17;100.00
34034;BME280;63481;52.588;22.472;2024-03-17T21:20:34;100307.90;;;0.20;100.00
34034;BME280;63481;52.588;22.472;2024-03-17T21:25:36;100309.81;;;0.14;100.00
34034;BME280;63481;52.588;22.472;2024-03-17T21:30:37;100303.45;;;0.02;100.00
34034;BME280;63481;52.588;22.472;2024-03-17T21:35:39;100295.08;;;0.09;100.00
34034;BME280;63481;52.588;22.472;2024-03-17T21:40:43;100291.71;;;-0.00;100.00
34034;BME280;63481;52.588;22.472;2024-03-17T21:45:45;100291.34;;;-0.06;100.00
34034;BME280;63481;52.588;22.472;2024-03-17T21:50:54;100284.28;;;-0.01;100.00
34034;BME280;63481;52.588;22.472;2024-03-17T21:55:56;100278.52;;;-0.01;100.00
34034;BME280;63481;52.588;22.472;2024-03-17T22:01:04;100278.36;;;-0.09;100.00
34034;BME280;63481;52.588;22.472;2024-03-17T22:06:06;100272.20;;;-0.13;100.00
34034;BME280;63481;52.588;22.472;2024-03-17T22:11:08;100271.01;;;-0.15;100.00
34034;BME280;63481;52.588;22.472;2024-03-17T22:16:09;100265.67;;;-0.18;100.00
34034;BME280;63481;52.588;22.472;2024-03-17T22:21:11;100260.30;;;-0.18;100.00
34034;BME280;63481;52.588;22.472;2024-03-17T22:26:14;100258.58;;;-0.22;100.00
34034;BME280;63481;52.588;22.472;2024-03-17T22:31:16;100251.95;;;-0.09;100.00
34034;BME280;63481;52.588;22.472;2024-03-17T22:36:19;100246.16;;;-0.13;100.00
34034;BME280;63481;52.588;22.472;2024-03-17T22:41:21;100249.85;;;-0.11;100.00
34034;BME280;63481;52.588;22.472;2024-03-17T22:46:23;100246.05;;;-0.15;100.00
34034;BME280;63481;52.588;22.472;2024-03-17T22:51:25;100244.91;;;-0.14;100.00
34034;BME280;63481;52.588;22.472;2024-03-17T22:56:26;100243.29;;;-0.13;100.00
34034;BME280;63481;52.588;22.472;2024-03-17T23:01:29;100242.73;;;-0.11;100.00
34034;BME280;63481;52.588;22.472;2024-03-17T23:06:34;100243.95;;;-0.10;100.00
34034;BME280;63481;52.588;22.472;2024-03-17T23:11:36;100242.20;;;-0.09;100.00
34034;BME280;63481;52.588;22.472;2024-03-17T23:16:37;100241.38;;;-0.10;100.00
34034;BME280;63481;52.588;22.472;2024-03-17T23:21:39;100238.56;;;-0.08;100.00
34034;BME280;63481;52.588;22.472;2024-03-17T23:26:41;100240.11;;;-0.08;100.00
34034;BME280;63481;52.588;22.472;2024-03-17T23:31:42;100230.38;;;-0.10;100.00
34034;BME280;63481;52.588;22.472;2024-03-17T23:36:44;100226.45;;;-0.11;100.00
34034;BME280;63481;52.588;22.472;2024-03-17T23:41:46;100218.41;;;-0.11;100.00
34034;BME280;63481;52.588;22.472;2024-03-17T23:46:47;100215.07;;;-0.16;100.00
34034;BME280;63481;52.588;22.472;2024-03-17T23:51:49;100210.85;;;-0.18;100.00
34034;BME280;63481;52.588;22.472;2024-03-17T23:56:51;100210.08;;;-0.17;100.00
